Time;durP1;ratioP1;P1;durP2;ratioP2;P2;SDS_P1;SDS_P2;PMS_P1;PMS_P2;Temp;Humidity;BMP_temperature;BMP_pressure;BME280_temperature;BME280_humidity;BME280_pressure;Samples;Min_cycle;Max_cycle;Signal;HPM_P1;HPM_P2
2024/04/15 00:00:33;;;;;;;8.88;2.85;;;10.10;78.50;;;;;;5429658;26;19999;-82
2024/04/15 00:02:58;;;;;;;9.25;2.67;;;10.10;78.90;;;;;;5429739;26;20071;-82
2024/04/15 00:05:24;;;;;;;9.65;2.80;;;10.10;79.00;;;;;;5419076;26;20590;-82
2024/04/15 00:07:50;;;;;;;10.98;2.55;;;10.10;79.20;;;;;;5434363;26;20003;-81
2024/04/15 00:10:16;;;;;;;9.23;2.88;;;10.10;79.10;;;;;;5435920;26;19999;-82
2024/04/15 00:12:42;;;;;;;11.18;3.15;;;10.10;79.10;;;;;;5436156;26;20450;-83
2024/04/15 00:15:07;;;;;;;10.02;2.65;;;10.00;79.30;;;;;;5430889;26;20014;-82
2024/04/15 00:17:33;;;;;;;8.90;2.30;;;10.10;79.30;;;;;;5416013;26;20094;-82
2024/04/15 00:19:59;;;;;;;13.77;2.92;;;10.00;79.30;;;;;;5427815;26;19999;-82
2024/04/15 00:22:24;;;;;;;10.85;2.67;;;10.00;79.40;;;;;;5409213;26;20013;-82
2024/04/15 00:24:50;;;;;;;12.88;2.53;;;10.00;79.50;;;;;;5435564;26;21104;-83
2024/04/15 00:27:15;;;;;;;11.43;2.90;;;9.90;79.60;;;;;;5399833;26;20018;-83
2024/04/15 00:29:41;;;;;;;11.98;2.95;;;9.90;80.00;;;;;;5435400;26;20002;-83
2024/04/15 00:32:07;;;;;;;11.20;2.60;;;9.90;79.90;;;;;;5400688;26;20723;-83
2024/04/15 00:34:32;;;;;;;9.77;2.40;;;9.90;80.10;;;;;;5430947;26;19998;-83
2024/04/15 00:36:58;;;;;;;9.52;2.67;;;9.80;80.20;;;;;;5407007;26;20447;-83
2024/04/15 00:39:25;;;;;;;9.82;2.55;;;9.90;80.40;;;;;;5405093;26;20007;-83
2024/04/15 00:41:51;;;;;;;13.27;2.95;;;9.80;80.40;;;;;;5431077;26;20051;-83
2024/04/15 00:44:17;;;;;;;15.13;3.10;;;9.90;80.60;;;;;;5435109;26;20011;-84
2024/04/15 00:46:43;;;;;;;15.25;3.25;;;9.80;80.90;;;;;;5431645;26;20010;-84
2024/04/15 00:49:12;;;;;;;14.55;3.30;;;9.70;81.10;;;;;;5436445;26;20022;-83
2024/04/15 00:51:41;;;;;;;14.07;2.70;;;9.70;81.30;;;;;;5426642;26;20454;-83
2024/04/15 00:54:09;;;;;;;10.30;2.67;;;9.70;81.50;;;;;;5400931;26;20002;-84
2024/04/15 00:56:35;;;;;;;11.07;3.10;;;9.70;81.40;;;;;;5435638;26;19999;-82
2024/04/15 00:59:01;;;;;;;21.25;4.00;;;9.70;81.60;;;;;;5431852;26;19995;-82
2024/04/15 01:01:26;;;;;;;14.60;3.30;;;9.70;81.60;;;;;;5427533;26;20326;-81
2024/04/15 01:03:55;;;;;;;10.95;2.72;;;9.70;81.60;;;;;;5427444;26;20015;-82
2024/04/15 01:06:21;;;;;;;12.90;3.17;;;9.60;81.80;;;;;;5430957;26;20031;-82
2024/04/15 01:08:46;;;;;;;11.82;2.58;;;9.60;82.00;;;;;;5400276;26;20057;-82
2024/04/15 01:11:13;;;;;;;11.38;2.72;;;9.60;82.10;;;;;;5415129;26;20150;-82
2024/04/15 01:13:39;;;;;;;12.65;2.85;;;9.60;82.60;;;;;;5419728;26;19999;-83
2024/04/15 01:16:05;;;;;;;13.90;2.97;;;9.60;82.40;;;;;;5430950;26;20507;-82
2024/04/15 01:18:31;;;;;;;9.60;3.00;;;9.60;82.30;;;;;;5417590;26;20480;-83
2024/04/15 01:20:58;;;;;;;10.40;2.83;;;9.50;82.60;;;;;;5389447;26;20014;-83
2024/04/15 01:23:30;;;;;;;11.38;3.42;;;9.50;82.70;;;;;;5427867;26;20005;-83
2024/04/15 01:25:55;;;;;;;19.45;4.82;;;9.50;82.80;;;;;;5419454;26;20010;-82
2024/04/15 01:28:21;;;;;;;14.52;3.60;;;9.50;83.00;;;;;;5414169;26;20081;-83
2024/04/15 01:30:47;;;;;;;15.43;3.58;;;9.50;83.20;;;;;;5427404;26;20542;-80
2024/04/15 01:33:12;;;;;;;10.68;2.95;;;9.40;83.50;;;;;;5398058;26;20550;-84
2024/04/15 01:35:38;;;;;;;14.10;3.67;;;9.50;83.60;;;;;;5437288;26;19998;-82
2024/04/15 01:38:04;;;;;;;9.95;3.10;;;9.30;84.00;;;;;;5416738;26;20002;-83
2024/04/15 01:40:30;;;;;;;11.40;3.78;;;9.40;84.10;;;;;;5427654;26;19995;-83
2024/04/15 01:42:55;;;;;;;13.52;3.63;;;9.40;84.30;;;;;;5412801;26;19999;-82
2024/04/15 01:45:21;;;;;;;13.00;3.83;;;9.40;84.10;;;;;;5432341;26;20805;-85
2024/04/15 01:47:48;;;;;;;13.77;3.80;;;9.30;84.40;;;;;;5410341;26;20010;-85
2024/04/15 01:50:14;;;;;;;14.60;3.60;;;9.30;84.80;;;;;;5416811;26;20002;-83
2024/04/15 01:52:40;;;;;;;16.60;3.90;;;9.30;84.90;;;;;;5430610;26;20007;-86
2024/04/15 01:55:06;;;;;;;20.92;5.10;;;9.30;85.00;;;;;;5438722;26;20291;-84
2024/04/15 01:57:32;;;;;;;14.70;4.28;;;9.20;85.40;;;;;;5430112;26;20003;-84
2024/04/15 01:59:57;;;;;;;15.00;4.30;;;9.20;85.40;;;;;;5432957;26;20025;-83
2024/04/15 02:02:23;;;;;;;15.88;4.47;;;9.20;85.60;;;;;;5434205;26;19995;-83
2024/04/15 02:04:48;;;;;;;13.95;4.40;;;9.10;85.80;;;;;;5428846;26;20063;-83
2024/04/15 02:07:14;;;;;;;19.38;4.65;;;9.10;86.00;;;;;;5420772;26;19999;-85
2024/04/15 02:09:40;;;;;;;10.57;3.95;;;9.10;86.10;;;;;;5433502;26;19999;-83
2024/04/15 02:12:06;;;;;;;18.08;4.72;;;9.10;86.30;;;;;;5402146;26;20002;-84
2024/04/15 02:14:32;;;;;;;17.77;4.88;;;9.10;86.50;;;;;;5431700;26;19994;-83
2024/04/15 02:16:58;;;;;;;12.50;4.50;;;9.10;86.40;;;;;;5425833;26;20018;-85
2024/04/15 02:19:25;;;;;;;14.27;5.63;;;9.10;86.60;;;;;;5407985;26;20884;-85
2024/04/15 02:21:50;;;;;;;18.33;5.10;;;9.10;86.60;;;;;;5406825;26;20048;-85
2024/04/15 02:24:16;;;;;;;15.55;4.32;;;9.10;86.90;;;;;;5432161;26;20010;-84
2024/04/15 02:26:41;;;;;;;13.18;4.65;;;9.00;87.10;;;;;;5418923;26;20010;-84
2024/04/15 02:29:07;;;;;;;20.20;5.25;;;9.00;87.10;;;;;;5407826;26;21040;-83
2024/04/15 02:31:33;;;;;;;16.77;5.00;;;9.00;87.20;;;;;;5403901;26;20369;-85
2024/04/15 02:33:58;;;;;;;19.48;5.95;;;9.00;87.20;;;;;;5389956;26;21648;-83
2024/04/15 02:36:24;;;;;;;15.85;4.97;;;9.00;87.30;;;;;;5397053;26;20412;-83
2024/04/15 02:38:50;;;;;;;14.27;5.43;;;9.00;87.50;;;;;;5431939;26;20549;-85
2024/04/15 02:41:16;;;;;;;20.40;5.80;;;9.00;87.20;;;;;;5434647;26;20013;-83
2024/04/15 02:43:41;;;;;;;16.88;4.30;;;9.00;87.30;;;;;;5439734;26;20791;-83
2024/04/15 02:46:07;;;;;;;15.10;4.75;;;9.00;87.30;;;;;;5439596;26;19995;-83
2024/04/15 02:48:33;;;;;;;20.52;5.25;;;9.00;87.40;;;;;;5433921;26;20544;-83
2024/04/15 02:50:59;;;;;;;21.20;5.78;;;8.90;87.50;;;;;;5398860;26;20321;-83
2024/04/15 02:53:25;;;;;;;15.75;4.30;;;8.90;87.70;;;;;;5408233;26;19994;-85
2024/04/15 02:55:53;;;;;;;16.52;4.97;;;8.90;87.60;;;;;;5425506;26;19999;-83
2024/04/15 02:58:19;;;;;;;16.17;4.90;;;8.90;87.70;;;;;;5436018;26;19999;-82
2024/04/15 03:00:44;;;;;;;16.60;4.75;;;8.80;87.70;;;;;;5438979;26;20014;-82
2024/04/15 03:03:10;;;;;;;16.35;4.45;;;8.80;87.80;;;;;;5394488;26;19994;-83
2024/04/15 03:05:40;;;;;;;15.82;4.70;;;8.80;87.90;;;;;;5429759;26;20210;-83
2024/04/15 03:08:05;;;;;;;17.58;5.30;;;8.80;88.00;;;;;;5418306;26;20406;-82
2024/04/15 03:10:31;;;;;;;15.30;5.18;;;8.80;88.10;;;;;;5424053;26;20132;-83
2024/04/15 03:12:57;;;;;;;20.88;5.85;;;8.70;88.10;;;;;;5407981;26;20700;-83
2024/04/15 03:15:22;;;;;;;12.48;4.93;;;8.70;88.10;;;;;;5435732;26;20324;-82
2024/04/15 03:17:50;;;;;;;19.25;4.80;;;8.70;88.20;;;;;;5419247;26;20800;-82
2024/04/15 03:20:15;;;;;;;20.48;5.35;;;8.70;88.30;;;;;;5437234;26;20023;-82
2024/04/15 03:22:49;;;;;;;17.63;5.97;;;8.70;88.40;;;;;;5425512;26;19999;-82
2024/04/15 03:25:18;;;;;;;18.85;5.97;;;8.70;88.50;;;;;;5459624;26;20011;-82
2024/04/15 03:27:45;;;;;;;17.52;5.60;;;8.70;88.50;;;;;;5432320;26;19994;-82
2024/04/15 03:30:11;;;;;;;18.15;5.85;;;8.70;88.50;;;;;;5427865;26;20017;-82
2024/04/15 03:32:36;;;;;;;14.13;4.85;;;8.70;88.50;;;;;;5456395;26;19998;-83
2024/04/15 03:35:02;;;;;;;14.32;5.03;;;8.70;88.50;;;;;;5449614;26;20006;-83
2024/04/15 03:37:28;;;;;;;17.27;5.22;;;8.70;88.40;;;;;;5461278;26;19995;-83
2024/04/15 03:39:53;;;;;;;16.65;5.70;;;8.70;88.60;;;;;;5445021;26;19999;-84
2024/04/15 03:42:19;;;;;;;17.17;5.78;;;8.70;88.60;;;;;;5444374;26;20030;-84
2024/04/15 03:44:45;;;;;;;17.35;5.53;;;8.70;88.60;;;;;;5432880;26;20074;-83
2024/04/15 03:47:10;;;;;;;14.70;5.20;;;8.70;88.70;;;;;;5430612;26;20003;-81
2024/04/15 03:49:36;;;;;;;19.70;5.40;;;8.70;88.80;;;;;;5447499;26;20002;-82
2024/04/15 03:52:02;;;;;;;18.00;5.88;;;8.70;88.80;;;;;;5445487;26;20261;-84
2024/04/15 03:54:29;;;;;;;20.85;5.03;;;8.70;88.90;;;;;;5421001;26;20176;-83
2024/04/15 03:56:54;;;;;;;18.65;5.72;;;8.70;89.00;;;;;;5464191;26;20029;-82
2024/04/15 03:59:20;;;;;;;17.48;5.30;;;8.80;89.10;;;;;;5459743;26;19999;-83
2024/04/15 04:01:45;;;;;;;18.50;5.32;;;8.70;89.20;;;;;;5459264;25;20047;-83
2024/04/15 04:04:11;;;;;;;16.05;4.60;;;8.80;89.10;;;;;;5435973;26;20714;-83
2024/04/15 04:06:37;;;;;;;19.00;5.28;;;8.70;89.10;;;;;;5444309;26;20020;-83
2024/04/15 04:09:02;;;;;;;14.55;4.93;;;8.70;89.40;;;;;;5406429;26;20496;-82
2024/04/15 04:11:28;;;;;;;15.77;4.72;;;8.70;89.50;;;;;;5434934;26;20520;-83
2024/04/15 04:13:54;;;;;;;15.00;5.47;;;8.70;89.40;;;;;;5430642;26;19999;-82
2024/04/15 04:16:21;;;;;;;15.60;4.63;;;8.80;89.60;;;;;;5440950;26;20003;-82
2024/04/15 04:18:47;;;;;;;23.67;5.55;;;8.80;89.70;;;;;;5432876;26;20024;-85
2024/04/15 04:21:12;;;;;;;18.20;4.93;;;8.70;89.90;;;;;;5435223;26;20053;-82
2024/04/15 04:23:38;;;;;;;22.10;5.65;;;8.70;89.90;;;;;;5413496;26;20005;-81
2024/04/15 04:26:04;;;;;;;18.77;4.90;;;8.80;90.00;;;;;;5434817;26;20008;-82
2024/04/15 04:28:30;;;;;;;18.25;5.47;;;8.70;90.00;;;;;;5409454;26;20013;-81
2024/04/15 04:31:05;;;;;;;19.35;5.38;;;8.70;90.10;;;;;;5430155;26;19995;-82
2024/04/15 04:33:33;;;;;;;;;;;8.70;90.20;;;;;;5430541;26;19999;-82
2024/04/15 04:36:00;;;;;;;22.08;5.03;;;8.70;90.40;;;;;;5445291;26;19928;-82
2024/04/15 04:38:25;;;;;;;23.98;5.30;;;8.60;90.60;;;;;;5408022;26;20968;-82
2024/04/15 04:40:58;;;;;;;20.88;5.05;;;8.60;90.50;;;;;;5441524;26;20007;-82
2024/04/15 04:43:24;;;;;;;18.85;5.10;;;8.60;90.60;;;;;;5431618;26;20006;-81
2024/04/15 04:45:49;;;;;;;20.33;4.70;;;8.60;90.60;;;;;;5405068;26;20068;-81
2024/04/15 04:48:15;;;;;;;16.00;4.93;;;8.60;90.70;;;;;;5440123;26;19991;-83
2024/04/15 04:50:41;;;;;;;21.70;5.38;;;8.60;90.80;;;;;;5433643;26;20002;-81
2024/04/15 04:53:06;;;;;;;15.88;4.55;;;8.70;90.90;;;;;;5434133;26;20007;-81
2024/04/15 04:55:36;;;;;;;21.20;5.68;;;8.60;90.90;;;;;;5399280;26;20003;-82
2024/04/15 04:58:03;;;;;;;22.15;5.57;;;8.70;91.00;;;;;;5432527;26;19998;-82
2024/04/15 05:00:29;;;;;;;18.02;5.63;;;8.60;91.00;;;;;;5429184;26;20067;-82
2024/04/15 05:02:54;;;;;;;18.50;5.43;;;8.60;91.00;;;;;;5435435;26;20006;-84
2024/04/15 05:05:20;;;;;;;20.17;5.18;;;8.60;91.00;;;;;;5431552;26;20006;-81
2024/04/15 05:07:46;;;;;;;25.10;5.65;;;8.60;91.00;;;;;;5433558;26;20013;-82
2024/04/15 05:10:14;;;;;;;16.92;5.53;;;8.60;91.00;;;;;;5417265;26;20053;-82
2024/04/15 05:12:40;;;;;;;19.98;5.60;;;8.60;91.00;;;;;;5399613;26;20032;-82
2024/04/15 05:15:07;;;;;;;19.30;4.53;;;8.70;91.00;;;;;;5426105;26;20749;-82
2024/04/15 05:17:33;;;;;;;22.40;5.93;;;8.70;90.90;;;;;;5431962;26;20003;-82
2024/04/15 05:19:59;;;;;;;16.58;4.47;;;8.70;90.80;;;;;;5432078;26;20056;-82
2024/04/15 05:22:24;;;;;;;19.08;4.90;;;8.70;90.70;;;;;;5408424;26;20869;-82
2024/04/15 05:24:50;;;;;;;22.50;5.63;;;8.70;90.70;;;;;;5416408;26;20010;-83
2024/04/15 05:27:16;;;;;;;18.13;5.30;;;8.80;90.80;;;;;;5411296;26;19999;-81
2024/04/15 05:29:41;;;;;;;23.02;5.45;;;8.90;90.70;;;;;;5434853;26;19991;-84
2024/04/15 05:32:07;;;;;;;22.83;5.43;;;9.00;90.50;;;;;;5432841;26;20074;-84
2024/04/15 05:34:33;;;;;;;22.75;5.55;;;9.00;90.50;;;;;;5396598;26;20002;-82
2024/04/15 05:36:59;;;;;;;18.92;5.00;;;9.10;90.60;;;;;;5428113;26;20002;-82
2024/04/15 05:39:25;;;;;;;16.20;5.35;;;9.20;90.40;;;;;;5409825;26;20409;-80
2024/04/15 05:41:51;;;;;;;18.08;5.05;;;9.20;90.10;;;;;;5431329;26;19995;-81
2024/04/15 05:44:16;;;;;;;21.02;5.07;;;9.20;90.10;;;;;;5422850;26;20037;-81
2024/04/15 05:46:50;;;;;;;18.15;5.45;;;9.30;89.90;;;;;;5400807;26;20264;-81
2024/04/15 05:49:17;;;;;;;22.13;5.53;;;9.30;89.70;;;;;;5429871;26;19995;-81
2024/04/15 05:51:45;;;;;;;17.35;5.50;;;9.30;89.50;;;;;;5418577;26;19994;-81
2024/04/15 05:54:10;;;;;;;17.15;5.38;;;9.40;89.70;;;;;;5428261;26;19994;-81
2024/04/15 05:56:36;;;;;;;17.23;4.95;;;9.40;89.50;;;;;;5393663;26;20063;-82
2024/04/15 05:59:02;;;;;;;17.90;4.75;;;9.40;89.50;;;;;;5429818;26;20503;-81
2024/04/15 06:01:27;;;;;;;24.38;7.10;;;9.40;89.50;;;;;;5408274;26;19995;-81
2024/04/15 06:03:53;;;;;;;21.20;5.70;;;9.40;89.20;;;;;;5429174;26;20823;-81
2024/04/15 06:06:19;;;;;;;17.50;5.03;;;9.40;89.50;;;;;;5414339;26;20035;-81
2024/04/15 06:08:44;;;;;;;16.92;5.53;;;9.40;89.50;;;;;;5427608;26;20511;-82
2024/04/15 06:11:10;;;;;;;25.80;5.65;;;9.50;89.40;;;;;;5415107;26;20080;-81
2024/04/15 06:13:35;;;;;;;14.05;4.68;;;9.60;89.30;;;;;;5422094;26;20024;-81
2024/04/15 06:16:01;;;;;;;19.77;5.85;;;9.80;89.20;;;;;;5431521;26;20141;-81
2024/04/15 06:18:27;;;;;;;17.50;4.28;;;10.00;88.80;;;;;;5403796;26;20401;-81
2024/04/15 06:20:52;;;;;;;16.70;3.92;;;10.10;88.20;;;;;;5434034;26;20007;-81
2024/04/15 06:23:18;;;;;;;19.73;4.50;;;10.30;87.90;;;;;;5428118;26;19999;-79
2024/04/15 06:25:59;;;;;;;18.50;5.15;;;10.40;87.10;;;;;;5438829;26;20006;-79
2024/04/15 06:28:25;;;;;;;18.88;4.60;;;10.50;86.50;;;;;;5381892;26;20011;-80
2024/04/15 06:30:51;;;;;;;15.35;4.75;;;10.50;86.50;;;;;;5437690;26;20316;-80
2024/04/15 06:33:17;;;;;;;15.55;4.53;;;10.60;86.10;;;;;;5380524;26;20003;-82
2024/04/15 06:35:45;;;;;;;22.90;5.90;;;10.60;85.80;;;;;;5404169;26;20072;-80
2024/04/15 06:38:13;;;;;;;15.25;4.60;;;10.60;85.80;;;;;;5423778;26;20294;-82
2024/04/15 06:40:40;;;;;;;20.58;5.90;;;10.70;85.60;;;;;;5417456;26;21215;-81
2024/04/15 06:43:06;;;;;;;19.88;5.88;;;10.70;85.30;;;;;;5382332;26;19995;-79
2024/04/15 06:45:32;;;;;;;16.15;6.03;;;10.70;85.10;;;;;;5436634;26;19999;-82
2024/04/15 06:47:59;;;;;;;17.13;6.03;;;10.80;84.90;;;;;;5414398;26;20006;-80
2024/04/15 06:50:25;;;;;;;18.05;5.97;;;10.90;84.90;;;;;;5410318;26;20405;-81
2024/04/15 06:52:52;;;;;;;18.38;5.80;;;10.80;84.50;;;;;;5431506;26;20010;-81
2024/04/15 06:55:18;;;;;;;15.00;5.57;;;10.80;84.10;;;;;;5423498;26;20007;-80
2024/04/15 06:57:43;;;;;;;21.10;5.68;;;10.90;83.80;;;;;;5410181;26;20022;-79
2024/04/15 07:00:10;;;;;;;16.83;5.18;;;11.00;84.20;;;;;;5419146;26;20443;-82
2024/04/15 07:02:35;;;;;;;14.63;5.25;;;11.00;83.60;;;;;;5437941;26;20451;-82
2024/04/15 07:05:01;;;;;;;12.85;4.43;;;11.10;83.50;;;;;;5437051;26;20014;-82
2024/04/15 07:07:27;;;;;;;17.55;4.60;;;11.10;83.10;;;;;;5433723;26;20018;-80
2024/04/15 07:09:52;;;;;;;17.25;5.57;;;11.20;82.70;;;;;;5437594;26;19991;-81
2024/04/15 07:12:18;;;;;;;16.73;5.38;;;11.20;82.60;;;;;;5401158;26;20101;-81
2024/04/15 07:14:45;;;;;;;16.10;4.40;;;11.30;82.40;;;;;;5402624;26;19999;-82
2024/04/15 07:17:12;;;;;;;19.85;4.90;;;11.30;82.00;;;;;;5426434;26;20013;-81
2024/04/15 07:19:37;;;;;;;14.32;4.50;;;11.30;82.30;;;;;;5432685;26;20010;-80
2024/04/15 07:22:03;;;;;;;19.42;3.78;;;11.30;81.60;;;;;;5393637;26;20011;-81
2024/04/15 07:24:29;;;;;;;17.00;4.40;;;11.20;81.20;;;;;;5411493;26;20010;-81
2024/04/15 07:26:55;;;;;;;16.08;3.00;;;11.20;81.20;;;;;;5433092;26;20026;-81
2024/04/15 07:29:21;;;;;;;17.80;4.15;;;11.50;80.90;;;;;;5411436;26;20719;-82
2024/04/15 07:31:46;;;;;;;15.07;3.92;;;11.70;79.40;;;;;;5420579;26;20025;-81
2024/04/15 07:34:12;;;;;;;10.75;3.17;;;11.80;78.70;;;;;;5398002;26;20376;-80
2024/04/15 07:36:38;;;;;;;15.63;3.53;;;12.10;79.10;;;;;;5402157;26;19995;-80
2024/04/15 07:39:03;;;;;;;14.63;2.97;;;12.10;78.30;;;;;;5419052;26;20533;-81
2024/04/15 07:41:29;;;;;;;16.98;3.13;;;12.10;78.30;;;;;;5412283;26;20017;-79
2024/04/15 07:43:55;;;;;;;15.45;3.42;;;12.00;78.50;;;;;;5394907;26;20627;-80
2024/04/15 07:46:20;;;;;;;16.55;3.22;;;12.10;78.50;;;;;;5418803;26;20345;-80
2024/04/15 07:48:46;;;;;;;18.85;3.17;;;12.10;78.20;;;;;;5421640;26;20118;-80
2024/04/15 07:51:11;;;;;;;13.43;3.30;;;12.20;78.00;;;;;;5387378;26;20308;-81
2024/04/15 07:53:37;;;;;;;14.50;3.38;;;12.50;77.80;;;;;;5408203;26;20041;-82
2024/04/15 07:56:03;;;;;;;13.80;3.40;;;12.60;77.10;;;;;;5420619;26;20063;-81
2024/04/15 07:58:34;;;;;;;17.05;4.13;;;13.00;76.50;;;;;;5412992;26;20290;-81
2024/04/15 08:01:00;;;;;;;13.38;3.33;;;13.50;75.50;;;;;;5411649;26;20026;-81
2024/04/15 08:03:25;;;;;;;17.92;3.35;;;13.60;74.00;;;;;;5427890;26;21895;-82
2024/04/15 08:05:51;;;;;;;16.48;3.85;;;13.50;73.00;;;;;;5404322;26;20010;-82
2024/04/15 08:08:17;;;;;;;14.70;4.47;;;13.50;73.60;;;;;;5417736;26;20001;-82
2024/04/15 08:10:42;;;;;;;13.27;3.90;;;13.40;74.10;;;;;;5418819;26;20372;-84
2024/04/15 08:13:08;;;;;;;14.88;3.30;;;13.20;74.20;;;;;;5420269;26;20010;-81
2024/04/15 08:15:34;;;;;;;13.73;3.30;;;13.10;74.10;;;;;;5415979;26;20360;-80
2024/04/15 08:18:00;;;;;;;11.93;2.72;;;13.00;74.30;;;;;;5410626;26;19999;-82
2024/04/15 08:20:26;;;;;;;10.15;2.75;;;12.90;73.50;;;;;;5423929;26;19995;-83
2024/04/15 08:22:51;;;;;;;12.75;3.45;;;13.10;73.50;;;;;;5395544;26;20423;-81
2024/04/15 08:25:17;;;;;;;10.15;2.45;;;13.10;72.20;;;;;;5416253;26;20098;-82
2024/04/15 08:27:43;;;;;;;11.88;2.47;;;12.80;71.20;;;;;;5403037;26;19994;-81
2024/04/15 08:30:09;;;;;;;9.05;2.70;;;12.90;70.60;;;;;;5417639;26;20002;-82
2024/04/15 08:32:35;;;;;;;13.73;2.67;;;13.00;71.50;;;;;;5409674;26;20277;-82
2024/04/15 08:35:01;;;;;;;16.80;2.90;;;13.10;71.40;;;;;;5413067;26;19994;-82
2024/04/15 08:37:27;;;;;;;10.52;2.65;;;13.10;71.90;;;;;;5422444;26;20520;-81
2024/04/15 08:39:53;;;;;;;8.70;2.60;;;13.40;71.80;;;;;;5410919;26;20563;-81
2024/04/15 08:42:50;;;;;;;12.95;2.75;;;13.60;72.00;;;;;;5399270;26;20009;-81
2024/04/15 08:45:20;;;;;;;10.70;2.88;;;13.60;71.40;;;;;;5387753;26;20421;-81
2024/04/15 08:47:52;;;;;;;14.57;2.95;;;13.60;70.90;;;;;;5379644;26;20351;-80
2024/04/15 08:50:20;;;;;;;12.93;3.30;;;13.60;71.40;;;;;;5417365;26;20003;-81
2024/04/15 08:52:50;;;;;;;9.15;2.80;;;13.40;70.80;;;;;;5415279;26;19995;-81
2024/04/15 08:55:16;;;;;;;9.50;2.80;;;13.10;71.80;;;;;;5418535;26;20307;-82
2024/04/15 08:57:43;;;;;;;12.55;3.00;;;12.90;72.80;;;;;;5399513;26;20074;-80
2024/04/15 09:00:12;;;;;;;15.43;3.15;;;12.80;73.20;;;;;;5415969;26;20522;-81
2024/04/15 09:02:38;;;;;;;11.80;2.60;;;12.70;73.60;;;;;;5414052;26;20444;-82
2024/04/15 09:05:04;;;;;;;14.60;2.95;;;12.90;73.30;;;;;;5402208;26;20009;-82
2024/04/15 09:07:30;;;;;;;13.70;2.35;;;12.80;72.80;;;;;;5383844;26;20578;-81
2024/04/15 09:09:56;;;;;;;13.60;2.78;;;13.00;72.80;;;;;;5412151;26;20542;-80
2024/04/15 09:12:21;;;;;;;11.48;2.33;;;13.00;72.80;;;;;;5415909;26;20424;-81
2024/04/15 09:14:47;;;;;;;13.77;2.83;;;12.80;72.40;;;;;;5385943;26;20003;-81
2024/04/15 09:17:14;;;;;;;9.75;2.15;;;12.80;72.60;;;;;;5411735;26;20005;-80
2024/04/15 09:19:41;;;;;;;14.88;3.30;;;12.80;72.50;;;;;;5403156;26;20123;-81
2024/04/15 09:22:07;;;;;;;8.52;2.60;;;12.80;72.00;;;;;;5410984;26;19998;-81
2024/04/15 09:24:33;;;;;;;14.15;2.90;;;12.80;71.50;;;;;;5414280;26;19994;-81
2024/04/15 09:26:59;;;;;;;11.45;2.55;;;13.00;71.70;;;;;;5412612;26;20002;-81
2024/04/15 09:29:25;;;;;;;12.52;2.72;;;13.10;71.10;;;;;;5407300;26;19991;-82
2024/04/15 09:31:51;;;;;;;10.40;2.60;;;13.20;71.00;;;;;;5400366;26;20010;-82
2024/04/15 09:34:16;;;;;;;8.27;1.88;;;13.20;71.00;;;;;;5407576;26;19995;-80
2024/04/15 09:36:42;;;;;;;10.93;2.42;;;13.20;70.70;;;;;;5403782;26;20363;-80
2024/04/15 09:39:09;;;;;;;11.48;2.38;;;13.20;70.90;;;;;;5375570;26;20304;-80
2024/04/15 09:41:34;;;;;;;10.43;2.28;;;13.20;70.90;;;;;;5412482;26;20404;-82
2024/04/15 09:44:00;;;;;;;11.88;2.42;;;13.10;71.10;;;;;;5410196;26;20023;-80
2024/04/15 09:46:32;;;;;;;13.30;2.60;;;13.00;71.60;;;;;;5402908;26;20002;-81
2024/04/15 09:49:00;;;;;;;16.88;3.60;;;12.90;71.80;;;;;;5406626;26;20065;-81
2024/04/15 09:51:31;;;;;;;8.75;1.95;;;12.80;72.00;;;;;;5409050;26;19998;-80
2024/04/15 09:54:01;;;;;;;9.38;2.25;;;12.70;72.80;;;;;;5402524;26;20052;-81
2024/04/15 09:56:29;;;;;;;12.75;2.15;;;12.60;73.20;;;;;;5415209;26;20472;-82
2024/04/15 09:59:00;;;;;;;10.13;2.47;;;12.60;73.50;;;;;;5398254;26;20026;-80
2024/04/15 10:01:32;;;;;;;8.15;2.28;;;12.60;75.80;;;;;;5405098;26;20006;-82
2024/04/15 10:04:01;;;;;;;9.20;1.95;;;12.40;77.80;;;;;;5412811;26;20007;-81
2024/04/15 10:06:39;;;;;;;11.07;2.42;;;12.10;79.30;;;;;;5389811;26;20003;-82
2024/04/15 10:09:05;;;;;;;10.30;2.17;;;12.10;81.10;;;;;;5408147;26;20449;-81
2024/04/15 10:11:33;;;;;;;9.43;2.10;;;12.10;81.60;;;;;;5419639;26;20002;-84
2024/04/15 10:13:59;;;;;;;10.82;2.47;;;12.00;81.10;;;;;;5391715;26;20070;-82
2024/04/15 10:16:25;;;;;;;10.88;2.67;;;12.10;81.00;;;;;;5423072;26;20538;-81
2024/04/15 10:18:57;;;;;;;11.18;2.72;;;12.10;80.90;;;;;;5412830;26;20003;-82
2024/04/15 10:21:23;;;;;;;12.93;2.90;;;12.10;80.10;;;;;;5415799;26;20395;-80
2024/04/15 10:23:49;;;;;;;12.93;3.05;;;12.10;80.50;;;;;;5422379;26;19998;-82
2024/04/15 10:26:15;;;;;;;10.68;2.90;;;12.10;80.10;;;;;;5423354;26;19999;-82
2024/04/15 10:28:41;;;;;;;10.90;2.85;;;12.10;80.00;;;;;;5403304;26;20071;-80
2024/04/15 10:31:06;;;;;;;10.15;2.70;;;12.20;80.50;;;;;;5399265;26;20380;-80
2024/04/15 10:33:32;;;;;;;7.63;2.67;;;12.10;79.90;;;;;;5401073;26;20003;-82
2024/04/15 10:35:58;;;;;;;9.80;3.20;;;12.10;80.80;;;;;;5395601;26;20422;-82
2024/04/15 10:38:27;;;;;;;11.93;3.08;;;12.20;81.40;;;;;;5368431;26;20010;-84
2024/04/15 10:40:54;;;;;;;11.18;2.63;;;12.20;81.00;;;;;;5405819;26;20275;-84
2024/04/15 10:43:24;;;;;;;8.98;2.58;;;12.20;80.70;;;;;;5381888;26;20143;-82
2024/04/15 10:45:51;;;;;;;9.48;2.60;;;12.20;80.00;;;;;;5402546;26;20654;-81
2024/04/15 10:48:17;;;;;;;12.13;3.10;;;12.10;80.60;;;;;;5381865;26;20011;-82
2024/04/15 10:50:43;;;;;;;12.48;3.28;;;12.20;81.60;;;;;;5378432;26;20013;-83
2024/04/15 10:53:10;;;;;;;10.45;2.60;;;12.30;81.60;;;;;;5404523;26;20426;-81
2024/04/15 10:55:36;;;;;;;8.77;2.63;;;12.40;82.40;;;;;;5400383;26;20027;-81
2024/04/15 10:58:02;;;;;;;10.82;2.58;;;12.30;81.50;;;;;;5377313;26;20452;-81
2024/04/15 11:00:31;;;;;;;8.60;2.50;;;12.30;82.10;;;;;;5390064;26;20010;-80
2024/04/15 11:02:58;;;;;;;7.18;2.35;;;12.20;83.20;;;;;;5388231;26;20188;-81
2024/04/15 11:05:24;;;;;;;5.32;1.80;;;12.10;83.30;;;;;;5427010;26;20001;-82
2024/04/15 11:07:51;;;;;;;14.27;2.40;;;11.90;83.70;;;;;;5417261;26;20071;-79
2024/04/15 11:10:17;;;;;;;11.63;2.33;;;11.80;83.80;;;;;;5424322;26;20045;-80
2024/04/15 11:12:43;;;;;;;11.25;2.25;;;11.90;84.70;;;;;;5424620;26;20508;-81
2024/04/15 11:15:10;;;;;;;12.40;2.38;;;11.90;84.90;;;;;;5432114;26;20195;-81
2024/04/15 11:17:45;;;;;;;12.85;3.20;;;12.00;85.10;;;;;;5415474;26;20058;-79
2024/04/15 11:20:12;;;;;;;10.73;2.63;;;12.10;84.80;;;;;;5388066;26;20015;-81
2024/04/15 11:22:38;;;;;;;10.45;2.75;;;12.30;84.40;;;;;;5401863;26;20002;-83
2024/04/15 11:25:03;;;;;;;10.15;2.50;;;12.50;84.40;;;;;;5432945;26;20089;-81
2024/04/15 11:27:33;;;;;;;7.05;2.58;;;12.60;82.90;;;;;;5433387;26;20007;-81
2024/04/15 11:29:59;;;;;;;11.50;2.50;;;12.70;82.00;;;;;;5398126;26;20033;-80
2024/04/15 11:32:27;;;;;;;8.45;2.22;;;12.80;81.20;;;;;;5436554;26;20038;-81
2024/04/15 11:34:54;;;;;;;9.70;2.78;;;12.80;80.60;;;;;;5428169;26;20076;-81
2024/04/15 11:37:20;;;;;;;14.48;2.80;;;12.70;79.60;;;;;;5432240;26;20002;-83
2024/04/15 11:39:46;;;;;;;10.35;2.42;;;12.60;79.50;;;;;;5434688;26;20016;-81
2024/04/15 11:42:13;;;;;;;10.48;2.13;;;12.60;79.80;;;;;;5436811;26;20009;-83
2024/04/15 11:44:39;;;;;;;12.35;2.72;;;12.40;78.90;;;;;;5418757;26;20415;-82
2024/04/15 11:47:05;;;;;;;10.95;2.15;;;12.50;80.70;;;;;;5434345;26;19995;-81
2024/04/15 11:49:30;;;;;;;10.95;2.42;;;12.40;81.00;;;;;;5435945;26;19995;-82
2024/04/15 11:51:59;;;;;;;13.32;2.95;;;12.20;82.40;;;;;;5399127;26;20514;-82
2024/04/15 11:54:31;;;;;;;10.68;2.42;;;12.00;83.70;;;;;;5435369;26;20081;-83
2024/04/15 11:56:58;;;;;;;13.10;2.67;;;11.90;85.00;;;;;;5423619;26;20002;-81
2024/04/15 11:59:24;;;;;;;13.63;2.78;;;11.70;85.70;;;;;;5430953;26;20011;-81
2024/04/15 12:01:55;;;;;;;10.13;2.60;;;11.60;86.60;;;;;;5432826;26;20079;-82
2024/04/15 12:04:20;;;;;;;9.23;2.25;;;11.40;87.50;;;;;;5436600;26;20457;-83
2024/04/15 12:06:46;;;;;;;7.15;2.13;;;9.70;86.80;;;;;;5406049;26;19999;-80
2024/04/15 12:09:12;;;;;;;7.35;2.00;;;8.10;88.50;;;;;;5432409;26;20677;-82
2024/04/15 12:11:38;;;;;;;7.85;2.33;;;7.30;89.00;;;;;;5432435;26;20378;-82
2024/04/15 12:14:03;;;;;;;7.95;2.63;;;7.30;90.00;;;;;;5431582;26;20568;-80
2024/04/15 12:16:29;;;;;;;7.95;2.95;;;7.20;90.00;;;;;;5433575;26;20348;-81
2024/04/15 12:18:54;;;;;;;12.10;2.97;;;7.10;90.50;;;;;;5425801;26;20007;-80
2024/04/15 12:21:20;;;;;;;10.13;2.65;;;7.10;90.50;;;;;;5440263;26;20009;-80
2024/04/15 12:23:46;;;;;;;8.60;2.47;;;7.30;90.40;;;;;;5438237;26;20075;-79
2024/04/15 12:26:11;;;;;;;9.15;3.15;;;7.30;90.10;;;;;;5414437;26;20443;-80
2024/04/15 12:28:37;;;;;;;7.85;2.90;;;7.40;90.20;;;;;;5426299;26;20009;-80
2024/04/15 12:31:03;;;;;;;8.82;2.47;;;7.50;90.20;;;;;;5425203;26;20417;-80
2024/04/15 12:33:28;;;;;;;7.90;2.50;;;7.50;89.90;;;;;;5400815;26;20535;-80
2024/04/15 12:35:54;;;;;;;9.55;2.55;;;7.60;90.20;;;;;;5433002;26;20013;-79
2024/04/15 12:38:20;;;;;;;7.88;2.70;;;7.70;90.10;;;;;;5393950;26;20007;-79